createdAt,value
2022-08-21T00:01:52.425Z,15.70
2022-08-21T00:04:22.133Z,15.70
2022-08-21T00:06:50.989Z,15.70
2022-08-21T00:09:20.003Z,15.60
2022-08-21T00:11:48.645Z,15.60
2022-08-21T00:14:16.611Z,15.60
2022-08-21T00:16:43.477Z,15.60
2022-08-21T00:19:10.302Z,15.60
2022-08-21T00:21:37.436Z,15.60
2022-08-21T00:24:05.584Z,15.60
2022-08-21T00:26:32.775Z,15.60
2022-08-21T00:28:59.804Z,15.50
2022-08-21T00:31:27.444Z,15.50
2022-08-21T00:33:57.973Z,15.50
2022-08-21T00:36:28.324Z,15.40
2022-08-21T00:38:55.079Z,15.50
2022-08-21T00:41:37.885Z,15.40
2022-08-21T00:44:10.475Z,15.40
2022-08-21T00:46:39.239Z,15.40
2022-08-21T00:49:08.754Z,15.40
2022-08-21T00:51:49.094Z,15.40
2022-08-21T00:54:19.338Z,15.40
2022-08-21T00:56:50.955Z,15.40
2022-08-21T00:59:21.011Z,15.30
2022-08-21T01:01:49.062Z,15.30
2022-08-21T01:04:17.244Z,15.30
2022-08-21T01:06:44.931Z,15.20
2022-08-21T01:09:13.924Z,15.30
2022-08-21T01:11:43.830Z,15.30
2022-08-21T01:14:13.315Z,15.20
2022-08-21T01:16:45.813Z,15.20
2022-08-21T01:19:14.989Z,15.20
2022-08-21T01:21:42.154Z,15.20
2022-08-21T01:24:11.660Z,15.20
2022-08-21T01:26:38.712Z,15.20
2022-08-21T01:29:44.135Z,15.20
2022-08-21T01:32:18.607Z,15.20
2022-08-21T01:34:49.327Z,15.20
2022-08-21T01:37:18.456Z,15.20
2022-08-21T01:39:46.097Z,15.10
2022-08-21T01:42:13.641Z,15.10
2022-08-21T01:44:41.107Z,15.10
2022-08-21T01:47:11.367Z,15.20
2022-08-21T01:49:39.511Z,15.10
2022-08-21T01:52:07.039Z,15.10
2022-08-21T01:54:37.699Z,15.10
2022-08-21T01:57:06.156Z,15.10
2022-08-21T01:59:35.006Z,15.00
2022-08-21T02:02:02.009Z,15.00
2022-08-21T02:04:28.816Z,15.00
2022-08-21T02:06:55.597Z,15.00
2022-08-21T02:09:22.650Z,14.90
2022-08-21T02:11:52.320Z,14.90
2022-08-21T02:14:28.622Z,14.90
2022-08-21T02:17:05.380Z,14.90
2022-08-21T02:19:39.678Z,15.00
2022-08-21T02:22:11.091Z,14.90
2022-08-21T02:24:53.575Z,14.90
2022-08-21T02:27:26.531Z,14.90
2022-08-21T02:29:58.429Z,14.90
2022-08-21T02:32:26.770Z,14.90
2022-08-21T02:34:54.274Z,14.90
2022-08-21T02:37:23.725Z,14.90
2022-08-21T02:39:50.808Z,14.80
2022-08-21T02:42:17.803Z,14.80
2022-08-21T02:44:44.600Z,14.80
2022-08-21T02:47:11.368Z,14.80
2022-08-21T02:49:38.179Z,14.80
2022-08-21T02:52:06.617Z,14.70
2022-08-21T02:54:34.027Z,14.70
2022-08-21T02:57:00.948Z,14.80
2022-08-21T02:59:27.910Z,14.80
2022-08-21T03:01:55.026Z,14.80
2022-08-21T03:04:21.907Z,14.80
2022-08-21T03:06:49.273Z,14.70
2022-08-21T03:09:16.212Z,14.70
2022-08-21T03:11:43.053Z,14.70
2022-08-21T03:14:10.308Z,14.70
2022-08-21T03:16:37.172Z,14.70
2022-08-21T03:19:04.334Z,14.70
2022-08-21T03:21:31.451Z,14.70
2022-08-21T03:23:58.209Z,14.70
2022-08-21T03:26:27.381Z,14.60
2022-08-21T03:28:55.428Z,14.60
2022-08-21T03:31:22.452Z,14.60
2022-08-21T03:33:49.260Z,14.60
2022-08-21T03:36:16.945Z,14.50
2022-08-21T03:38:43.774Z,14.60
2022-08-21T03:41:10.644Z,14.60
2022-08-21T03:43:37.638Z,14.50
2022-08-21T03:46:06.679Z,14.50
2022-08-21T03:48:36.697Z,14.50
2022-08-21T03:51:04.465Z,14.50
2022-08-21T03:53:31.298Z,14.50
2022-08-21T03:55:58.608Z,14.40
2022-08-21T03:58:28.671Z,14.40
2022-08-21T04:01:00.652Z,14.40
2022-08-21T04:03:29.001Z,14.40
2022-08-21T04:05:55.935Z,14.30
2022-08-21T04:08:22.767Z,14.30
2022-08-21T04:10:53.472Z,14.30
2022-08-21T04:13:21.552Z,14.30
2022-08-21T04:15:49.121Z,14.30
2022-08-21T04:18:16.351Z,14.30
2022-08-21T04:20:50.246Z,14.30
2022-08-21T04:23:23.927Z,14.30
2022-08-21T04:25:53.479Z,14.30
2022-08-21T04:28:21.197Z,14.20
2022-08-21T04:30:53.062Z,14.30
2022-08-21T04:33:22.216Z,14.30
2022-08-21T04:35:51.154Z,14.30
2022-08-21T04:38:18.585Z,14.30
2022-08-21T04:40:45.955Z,14.30
2022-08-21T04:43:13.047Z,14.30
2022-08-21T04:45:48.964Z,14.30
2022-08-21T04:48:21.643Z,14.30
2022-08-21T04:51:24.876Z,14.30
2022-08-21T04:54:06.716Z,14.30
2022-08-21T04:56:46.558Z,14.30
2022-08-21T04:59:28.896Z,14.30
2022-08-21T05:01:57.913Z,14.30
2022-08-21T05:04:31.370Z,14.40
2022-08-21T05:07:04.649Z,14.40
2022-08-21T05:09:31.964Z,14.40
2022-08-21T05:11:59.251Z,14.40
2022-08-21T05:14:28.145Z,14.50
2022-08-21T05:16:55.052Z,14.60
2022-08-21T05:19:21.864Z,14.60
2022-08-21T05:21:48.960Z,14.60
2022-08-21T05:24:16.983Z,14.70
2022-08-21T05:26:46.297Z,14.70
2022-08-21T05:29:16.342Z,15.00
2022-08-21T05:31:43.883Z,15.10
2022-08-21T05:34:10.905Z,15.10
2022-08-21T05:36:37.960Z,15.20
2022-08-21T05:39:05.035Z,15.30
2022-08-21T05:41:32.075Z,15.50
2022-08-21T05:44:01.027Z,15.50
2022-08-21T05:46:28.220Z,15.60
2022-08-21T05:48:55.085Z,15.70
2022-08-21T05:51:21.947Z,15.80
2022-08-21T05:53:48.911Z,15.80
2022-08-21T05:56:16.381Z,15.90
2022-08-21T05:58:43.947Z,16.00
2022-08-21T06:01:11.750Z,16.00
2022-08-21T06:03:41.979Z,16.20
2022-08-21T06:06:08.810Z,16.80
2022-08-21T06:08:36.011Z,17.20
2022-08-21T06:11:05.477Z,17.10
2022-08-21T06:13:33.039Z,17.10
2022-08-21T06:16:07.109Z,17.10
2022-08-21T06:18:35.554Z,17.20
2022-08-21T06:21:02.367Z,17.10
2022-08-21T06:23:33.470Z,17.20
2022-08-21T06:26:02.297Z,17.20
2022-08-21T06:28:29.281Z,17.40
2022-08-21T06:30:56.273Z,17.50
2022-08-21T06:33:23.176Z,17.70
2022-08-21T06:35:50.322Z,17.70
2022-08-21T06:38:17.493Z,17.80
2022-08-21T06:40:47.649Z,17.70
2022-08-21T06:43:17.926Z,17.70
2022-08-21T06:45:46.151Z,17.80
2022-08-21T06:48:18.408Z,18.10
2022-08-21T06:50:47.451Z,18.40
2022-08-21T06:53:18.262Z,18.70
2022-08-21T06:55:46.152Z,19.00
2022-08-21T06:58:13.478Z,19.10
2022-08-21T07:00:45.377Z,19.10
2022-08-21T07:03:29.699Z,19.10
2022-08-21T07:05:59.109Z,19.20
2022-08-21T07:08:27.606Z,19.30
2022-08-21T07:10:59.383Z,19.60
2022-08-21T07:13:27.027Z,19.70
2022-08-21T07:15:54.175Z,19.60
2022-08-21T07:18:21.033Z,19.70
2022-08-21T07:20:48.740Z,19.60
2022-08-21T07:23:28.976Z,19.70
2022-08-21T07:25:55.973Z,19.80
2022-08-21T07:28:23.448Z,19.90
2022-08-21T07:30:56.905Z,20.00
2022-08-21T07:33:25.764Z,20.00
2022-08-21T07:35:53.028Z,20.00
2022-08-21T07:38:20.130Z,19.80
2022-08-21T07:40:51.994Z,19.90
2022-08-21T07:43:19.076Z,19.70
2022-08-21T07:45:46.620Z,19.80
2022-08-21T07:48:13.387Z,19.90
2022-08-21T07:50:42.004Z,19.90
2022-08-21T07:53:09.368Z,20.10
2022-08-21T07:55:36.398Z,20.30
2022-08-21T07:58:03.240Z,20.40
2022-08-21T08:00:31.696Z,20.50
2022-08-21T08:02:58.901Z,20.50
2022-08-21T08:05:30.565Z,20.60
2022-08-21T08:07:57.675Z,20.60
2022-08-21T08:10:25.284Z,20.60
2022-08-21T08:12:55.338Z,20.50
2022-08-21T08:15:26.225Z,20.50
2022-08-21T08:17:55.635Z,20.60
2022-08-21T08:20:23.815Z,20.60
2022-08-21T08:22:50.960Z,20.80
2022-08-21T08:25:21.190Z,21.00
2022-08-21T08:27:48.189Z,21.10
2022-08-21T08:30:19.003Z,21.30
2022-08-21T08:32:47.721Z,21.20
2022-08-21T08:35:15.378Z,21.10
2022-08-21T08:37:43.686Z,21.00
2022-08-21T08:40:40.876Z,21.20
2022-08-21T08:43:10.925Z,21.30
2022-08-21T08:45:47.209Z,21.40
2022-08-21T08:48:37.376Z,21.50
2022-08-21T08:51:14.044Z,21.60
2022-08-21T08:53:55.366Z,21.70
2022-08-21T08:56:30.088Z,21.70
2022-08-21T08:59:11.144Z,21.90
2022-08-21T09:01:39.210Z,21.80
2022-08-21T09:04:07.061Z,21.90
2022-08-21T09:07:14.459Z,21.90
2022-08-21T09:10:45.808Z,21.80
2022-08-21T09:13:50.700Z,21.90
2022-08-21T09:17:10.896Z,22.20
2022-08-21T09:20:15.075Z,22.10
2022-08-21T09:22:50.776Z,22.10
2022-08-21T09:25:31.702Z,22.40
2022-08-21T09:27:58.515Z,22.30
2022-08-21T09:30:33.022Z,22.60
2022-08-21T09:33:00.589Z,22.70
2022-08-21T09:35:27.788Z,22.60
2022-08-21T09:38:03.992Z,22.60
2022-08-21T09:40:41.548Z,22.60
2022-08-21T09:43:23.779Z,22.70
2022-08-21T09:46:04.427Z,22.70
2022-08-21T09:48:46.712Z,22.70
2022-08-21T09:51:21.756Z,22.60
2022-08-21T09:54:11.072Z,22.60
2022-08-21T09:57:37.516Z,22.60
2022-08-21T10:00:10.008Z,22.60
2022-08-21T10:02:37.612Z,22.60
2022-08-21T10:05:28.188Z,22.70
2022-08-21T10:07:55.021Z,22.70
2022-08-21T10:10:31.577Z,22.80
2022-08-21T10:13:25.158Z,22.70
2022-08-21T10:16:30.355Z,22.70
2022-08-21T10:19:21.376Z,23.00
2022-08-21T10:22:19.071Z,23.20
2022-08-21T10:24:52.493Z,23.10
2022-08-21T10:27:44.972Z,23.00
2022-08-21T10:30:56.923Z,23.00
2022-08-21T10:34:04.519Z,22.90
2022-08-21T10:36:47.202Z,22.90
2022-08-21T10:39:36.604Z,22.90
2022-08-21T10:43:03.067Z,23.00
2022-08-21T10:46:22.621Z,23.30
2022-08-21T10:48:59.706Z,23.30
2022-08-21T10:52:21.913Z,23.50
2022-08-21T10:55:13.412Z,23.70
2022-08-21T10:57:58.199Z,23.70
2022-08-21T11:00:35.594Z,23.70
2022-08-21T11:03:18.803Z,23.60
2022-08-21T11:06:01.549Z,23.40
2022-08-21T11:08:39.875Z,23.40
2022-08-21T11:11:29.428Z,23.60
2022-08-21T11:14:50.030Z,23.80
2022-08-21T11:17:25.320Z,24.00
2022-08-21T11:20:08.696Z,24.00
2022-08-21T11:23:03.044Z,23.90
2022-08-21T11:25:37.797Z,23.70
2022-08-21T11:28:25.284Z,23.40
2022-08-21T11:31:19.575Z,23.50
2022-08-21T11:34:42.540Z,23.40
2022-08-21T11:37:43.335Z,23.60
2022-08-21T11:40:53.888Z,23.70
2022-08-21T11:43:54.605Z,23.60
2022-08-21T11:46:39.681Z,23.60
2022-08-21T11:49:47.695Z,23.80
2022-08-21T11:52:41.488Z,23.80
2022-08-21T11:55:23.950Z,24.00
2022-08-21T11:58:20.534Z,24.00
2022-08-21T12:01:20.107Z,24.00
2022-08-21T12:04:31.758Z,24.00
2022-08-21T12:07:16.797Z,24.20
2022-08-21T12:09:56.829Z,24.20
2022-08-21T12:12:35.417Z,24.30
2022-08-21T12:15:22.789Z,24.20
2022-08-21T12:18:21.489Z,24.10
2022-08-21T12:21:21.203Z,24.00
2022-08-21T12:23:58.788Z,23.90
2022-08-21T12:26:48.524Z,23.90
2022-08-21T12:29:30.497Z,24.00
2022-08-21T12:32:21.155Z,24.20
2022-08-21T12:34:58.767Z,24.30
2022-08-21T12:37:46.264Z,24.20
2022-08-21T12:40:27.042Z,24.00
2022-08-21T12:43:00.240Z,23.90
2022-08-21T12:45:45.328Z,24.00
2022-08-21T12:48:34.686Z,24.20
2022-08-21T12:51:14.198Z,24.30
2022-08-21T12:53:59.571Z,24.40
2022-08-21T12:56:31.184Z,24.30
2022-08-21T12:59:06.061Z,24.20
2022-08-21T13:01:41.921Z,24.30
2022-08-21T13:04:18.672Z,24.20
2022-08-21T13:06:54.071Z,24.00
2022-08-21T13:09:29.094Z,24.00
2022-08-21T13:11:57.690Z,24.00
2022-08-21T13:14:45.915Z,24.00
2022-08-21T13:17:23.618Z,23.90
2022-08-21T13:20:08.704Z,24.00
2022-08-21T13:22:43.876Z,24.20
2022-08-21T13:25:16.295Z,24.20
2022-08-21T13:27:48.423Z,24.10
2022-08-21T13:30:23.257Z,24.00
2022-08-21T13:32:58.040Z,24.00
2022-08-21T13:35:37.314Z,24.20
2022-08-21T13:38:06.314Z,24.20
2022-08-21T13:40:50.366Z,24.10
2022-08-21T13:43:23.248Z,24.20
2022-08-21T13:45:53.941Z,24.20
2022-08-21T13:48:24.182Z,24.10
2022-08-21T13:50:52.212Z,24.10
2022-08-21T13:53:26.569Z,24.00
2022-08-21T13:55:57.416Z,24.10
2022-08-21T13:58:42.934Z,24.10
2022-08-21T14:01:30.905Z,24.10
2022-08-21T14:04:13.020Z,24.00
2022-08-21T14:06:40.152Z,24.10
2022-08-21T14:09:29.495Z,24.00
2022-08-21T14:11:58.467Z,24.00
2022-08-21T14:14:32.148Z,23.90
2022-08-21T14:17:32.780Z,24.00
2022-08-21T14:20:01.777Z,24.00
2022-08-21T14:22:49.280Z,24.00
2022-08-21T14:25:29.774Z,24.00
2022-08-21T14:28:10.125Z,24.00
2022-08-21T14:30:44.330Z,24.00
2022-08-21T14:33:21.299Z,24.00
2022-08-21T14:35:48.074Z,23.90
2022-08-21T14:38:18.619Z,23.90
2022-08-21T14:40:53.035Z,23.80
2022-08-21T14:43:21.257Z,23.70
2022-08-21T14:45:48.857Z,23.70
2022-08-21T14:48:15.990Z,23.70
2022-08-21T14:50:43.284Z,23.80
2022-08-21T14:53:10.934Z,23.80
2022-08-21T14:55:59.216Z,23.90
2022-08-21T14:58:26.620Z,23.90
2022-08-21T15:00:55.260Z,23.80
2022-08-21T15:03:24.996Z,23.90
2022-08-21T15:05:52.540Z,23.90
2022-08-21T15:08:19.832Z,23.90
2022-08-21T15:11:10.075Z,23.80
2022-08-21T15:13:34.884Z,23.70
2022-08-21T15:16:01.909Z,23.70
2022-08-21T15:18:32.261Z,23.70
2022-08-21T15:20:59.180Z,23.70
2022-08-21T15:23:25.970Z,23.70
2022-08-21T15:25:54.489Z,23.70
2022-08-21T15:28:22.467Z,23.60
2022-08-21T15:30:50.974Z,23.50
2022-08-21T15:33:19.034Z,23.50
2022-08-21T15:35:47.083Z,23.40
2022-08-21T15:38:15.637Z,23.50
2022-08-21T15:40:47.857Z,23.40
2022-08-21T15:43:41.627Z,23.40
2022-08-21T15:46:14.297Z,23.30
2022-08-21T15:48:41.366Z,23.50
2022-08-21T15:51:09.875Z,23.60
2022-08-21T15:53:39.431Z,23.60
2022-08-21T15:56:23.692Z,23.50
2022-08-21T15:58:58.525Z,23.40
2022-08-21T16:01:25.440Z,23.50
2022-08-21T16:03:55.091Z,23.50
2022-08-21T16:06:38.448Z,23.30
2022-08-21T16:09:09.202Z,23.30
2022-08-21T16:11:36.010Z,23.30
2022-08-21T16:14:02.867Z,23.20
2022-08-21T16:16:32.039Z,23.40
2022-08-21T16:18:58.973Z,23.30
2022-08-21T16:21:25.792Z,23.40
2022-08-21T16:23:53.047Z,23.40
2022-08-21T16:26:21.208Z,23.30
2022-08-21T16:28:53.359Z,23.30
2022-08-21T16:31:24.403Z,23.30
2022-08-21T16:33:57.888Z,23.20
2022-08-21T16:36:26.682Z,23.30
2022-08-21T16:38:58.521Z,23.20
2022-08-21T16:41:31.061Z,23.10
2022-08-21T16:43:58.367Z,23.20
2022-08-21T16:46:25.966Z,23.20
2022-08-21T16:48:52.792Z,23.10
2022-08-21T16:51:19.597Z,23.20
2022-08-21T16:53:46.479Z,23.20
2022-08-21T16:56:16.254Z,23.10
2022-08-21T16:58:48.028Z,23.20
2022-08-21T17:01:19.642Z,23.10
2022-08-21T17:03:51.207Z,23.10
2022-08-21T17:06:21.096Z,23.10
2022-08-21T17:08:52.493Z,23.10
2022-08-21T17:11:37.965Z,23.00
2022-08-21T17:14:16.919Z,22.80
2022-08-21T17:16:50.403Z,23.00
2022-08-21T17:19:19.161Z,22.90
2022-08-21T17:21:46.396Z,22.90
2022-08-21T17:24:15.406Z,22.90
2022-08-21T17:26:44.195Z,22.80
2022-08-21T17:29:15.779Z,22.70
2022-08-21T17:31:44.594Z,22.70
2022-08-21T17:34:12.988Z,22.70
2022-08-21T17:36:40.263Z,22.70
2022-08-21T17:39:07.564Z,22.70
2022-08-21T17:41:34.673Z,22.60
2022-08-21T17:44:09.398Z,22.50
2022-08-21T17:46:38.813Z,22.40
2022-08-21T17:49:09.230Z,22.40
2022-08-21T17:51:36.139Z,22.30
2022-08-21T17:54:03.359Z,22.40
2022-08-21T17:56:35.136Z,22.30
2022-08-21T17:59:05.410Z,22.40
2022-08-21T18:01:39.039Z,22.30
2022-08-21T18:04:06.376Z,22.30
2022-08-21T18:06:33.236Z,22.20
2022-08-21T18:09:00.066Z,22.20
2022-08-21T18:11:30.671Z,22.20
2022-08-21T18:14:07.140Z,22.10
2022-08-21T18:16:36.060Z,22.10
2022-08-21T18:19:07.977Z,22.10
2022-08-21T18:21:35.410Z,22.00
2022-08-21T18:24:02.256Z,22.00
2022-08-21T18:26:34.707Z,21.90
2022-08-21T18:29:04.940Z,22.00
2022-08-21T18:31:35.168Z,21.90
2022-08-21T18:34:14.332Z,21.90
2022-08-21T18:36:43.867Z,21.80
2022-08-21T18:39:35.003Z,21.90
2022-08-21T18:42:00.534Z,21.80
2022-08-21T18:44:29.033Z,21.70
2022-08-21T18:47:05.443Z,21.70
2022-08-21T18:49:32.241Z,21.60
2022-08-21T18:52:01.003Z,21.50
2022-08-21T18:54:30.118Z,21.50
2022-08-21T18:56:57.017Z,21.40
2022-08-21T18:59:28.256Z,21.30
2022-08-21T19:01:56.494Z,21.30
2022-08-21T19:04:42.916Z,21.30
2022-08-21T19:07:11.223Z,21.20
2022-08-21T19:09:37.993Z,21.00
2022-08-21T19:12:05.896Z,21.00
2022-08-21T19:14:33.249Z,20.90
2022-08-21T19:17:00.568Z,20.90
2022-08-21T19:19:27.414Z,20.80
2022-08-21T19:21:54.214Z,20.80
2022-08-21T19:24:23.237Z,20.80
2022-08-21T19:26:50.645Z,20.70
2022-08-21T19:29:34.417Z,20.70
2022-08-21T19:32:06.266Z,20.60
2022-08-21T19:34:36.332Z,20.60
2022-08-21T19:37:04.298Z,20.50
2022-08-21T19:39:37.917Z,20.50
2022-08-21T19:42:06.515Z,20.40
2022-08-21T19:44:39.561Z,20.30
2022-08-21T19:47:18.948Z,20.30
2022-08-21T19:49:54.334Z,20.20
2022-08-21T19:52:22.204Z,20.20
2022-08-21T19:54:49.215Z,20.10
2022-08-21T19:57:17.455Z,20.10
2022-08-21T19:59:45.591Z,20.10
2022-08-21T20:02:15.071Z,20.00
2022-08-21T20:04:53.219Z,20.00
2022-08-21T20:07:25.018Z,20.00
2022-08-21T20:09:54.531Z,19.90
2022-08-21T20:12:22.781Z,19.90
2022-08-21T20:14:51.339Z,19.90
2022-08-21T20:17:20.533Z,19.90
2022-08-21T20:22:35.478Z,19.90
2022-08-21T20:25:02.265Z,19.80
2022-08-21T20:27:29.728Z,19.80
2022-08-21T20:29:56.659Z,19.80
2022-08-21T20:32:23.937Z,19.80
2022-08-21T20:37:38.945Z,19.70
2022-08-21T20:40:11.820Z,19.60
2022-08-21T20:42:44.971Z,19.60
2022-08-21T20:45:17.361Z,19.60
2022-08-21T20:47:45.613Z,19.50
2022-08-21T20:50:19.435Z,19.50
2022-08-21T20:52:50.708Z,19.50
2022-08-21T20:55:29.058Z,19.50
2022-08-21T20:58:02.908Z,19.40
2022-08-21T21:00:37.441Z,19.40
2022-08-21T21:03:39.344Z,19.40
2022-08-21T21:06:19.216Z,19.30
2022-08-21T21:09:23.458Z,19.30
2022-08-21T21:11:58.605Z,19.30
2022-08-21T21:14:42.832Z,19.30
2022-08-21T21:18:00.625Z,19.20
2022-08-21T21:20:49.892Z,19.30
2022-08-21T21:23:40.339Z,19.20
2022-08-21T21:32:17.902Z,19.20
2022-08-21T21:35:08.271Z,19.30
2022-08-21T21:37:51.623Z,19.20
2022-08-21T21:41:00.089Z,19.20
2022-08-21T21:43:51.082Z,19.20
2022-08-21T21:46:51.883Z,19.20
2022-08-21T21:49:57.020Z,19.20
2022-08-21T21:53:19.626Z,19.20
2022-08-21T21:56:16.684Z,19.20
2022-08-21T21:59:26.007Z,19.20
2022-08-21T22:02:07.324Z,19.20
2022-08-21T22:05:20.144Z,19.20
2022-08-21T22:08:18.276Z,19.20
2022-08-21T22:11:08.916Z,19.20
2022-08-21T22:14:00.561Z,19.20
2022-08-21T22:16:27.416Z,19.20
2022-08-21T22:19:02.992Z,19.20
2022-08-21T22:21:42.472Z,19.30
2022-08-21T22:24:28.633Z,19.30
2022-08-21T22:27:38.659Z,19.30
2022-08-21T22:30:18.286Z,19.40
2022-08-21T22:32:50.416Z,19.40
2022-08-21T22:35:23.721Z,19.30
2022-08-21T22:38:12.498Z,19.30
2022-08-21T22:40:40.256Z,19.30
2022-08-21T22:43:19.447Z,19.30
2022-08-21T22:46:07.832Z,19.30
2022-08-21T22:48:50.796Z,19.20
2022-08-21T22:51:41.372Z,19.20
2022-08-21T22:54:22.000Z,19.20
2022-08-21T22:57:11.168Z,19.20
2022-08-21T22:59:54.052Z,19.10
2022-08-21T23:02:57.484Z,19.10
2022-08-21T23:05:32.983Z,19.10
2022-08-21T23:08:23.909Z,19.00
2022-08-21T23:10:59.997Z,19.00
2022-08-21T23:13:39.872Z,18.90
2022-08-21T23:16:25.311Z,18.90
2022-08-21T23:19:11.332Z,18.90
2022-08-21T23:21:57.823Z,18.90
2022-08-21T23:24:49.998Z,18.90
2022-08-21T23:27:54.379Z,18.80
2022-08-21T23:30:34.126Z,18.80
2022-08-21T23:33:30.179Z,18.80
2022-08-21T23:36:51.039Z,18.80
2022-08-21T23:39:32.147Z,18.80
2022-08-21T23:43:02.240Z,18.80
2022-08-21T23:46:02.140Z,18.90
2022-08-21T23:48:53.918Z,18.80
2022-08-21T23:51:50.258Z,18.80
2022-08-21T23:54:35.476Z,18.70
2022-08-21T23:57:40.138Z,18.70
